Time;durP1;ratioP1;P1;durP2;ratioP2;P2;SDS_P1;SDS_P2;PMS_P1;PMS_P2;Temp;Humidity;BMP_temperature;BMP_pressure;BME280_temperature;BME280_humidity;BME280_pressure;Samples;Min_cycle;Max_cycle;Signal;HPM_P1;HPM_P2
2023/03/13 00:00:15;;;;;;;41.08;6.80;;;5.80;99.80;;;;;;5081453;28;20415;-75
2023/03/13 00:02:44;;;;;;;34.58;6.25;;;5.80;99.90;;;;;;5065419;28;20040;-75
2023/03/13 00:05:10;;;;;;;35.47;7.15;;;5.70;99.80;;;;;;5071324;28;20354;-75
2023/03/13 00:07:35;;;;;;;35.25;6.65;;;5.70;99.80;;;;;;5070587;28;20040;-75
2023/03/13 00:10:01;;;;;;;37.78;6.43;;;5.70;99.90;;;;;;5067347;28;20039;-74
2023/03/13 00:12:26;;;;;;;40.00;7.80;;;5.70;99.90;;;;;;5073893;28;20052;-74
2023/03/13 00:14:52;;;;;;;39.90;7.65;;;5.80;99.90;;;;;;5063591;28;20109;-75
2023/03/13 00:17:17;;;;;;;44.05;8.52;;;5.80;99.90;;;;;;5063729;28;20043;-75
2023/03/13 00:19:43;;;;;;;44.60;7.90;;;5.80;99.90;;;;;;5065063;28;20029;-75
2023/03/13 00:22:08;;;;;;;42.28;7.53;;;5.80;99.90;;;;;;5051588;28;20024;-76
2023/03/13 00:24:34;;;;;;;44.20;8.30;;;5.90;99.90;;;;;;5063818;28;20086;-75
2023/03/13 00:27:02;;;;;;;31.20;7.18;;;5.90;99.90;;;;;;5064488;28;20065;-75
2023/03/13 00:29:28;;;;;;;35.63;7.95;;;5.90;99.90;;;;;;5066922;28;20473;-76
2023/03/13 00:31:54;;;;;;;37.78;7.88;;;6.00;99.90;;;;;;5068099;28;20364;-76
2023/03/13 00:34:19;;;;;;;39.60;7.65;;;6.00;99.90;;;;;;5065680;28;20045;-74
2023/03/13 00:36:44;;;;;;;35.95;8.73;;;6.00;99.90;;;;;;5064299;28;20888;-75
2023/03/13 00:39:10;;;;;;;33.10;7.78;;;6.10;99.90;;;;;;5072948;28;20461;-75
2023/03/13 00:41:36;;;;;;;42.47;7.55;;;6.10;99.90;;;;;;5074686;28;20040;-75
2023/03/13 00:44:03;;;;;;;36.45;7.75;;;6.10;99.90;;;;;;5067170;28;20025;-75
2023/03/13 00:46:29;;;;;;;34.22;7.20;;;6.10;99.80;;;;;;5061214;28;20048;-75
2023/03/13 00:48:56;;;;;;;43.20;7.68;;;6.10;99.80;;;;;;5069856;28;20040;-75
2023/03/13 00:51:23;;;;;;;39.58;8.50;;;6.10;99.80;;;;;;5071188;28;20477;-75
2023/03/13 00:53:49;;;;;;;35.80;8.38;;;6.10;99.70;;;;;;5066825;28;20087;-75
2023/03/13 00:56:16;;;;;;;37.60;7.78;;;6.10;99.70;;;;;;5068951;28;20499;-75
2023/03/13 00:58:43;;;;;;;31.85;8.00;;;6.10;99.80;;;;;;5069968;28;20037;-75
2023/03/13 01:01:14;;;;;;;38.70;8.40;;;6.10;99.70;;;;;;5068210;28;20077;-75
2023/03/13 01:03:41;;;;;;;38.13;8.57;;;6.20;99.80;;;;;;5068648;28;20045;-75
2023/03/13 01:06:11;;;;;;;31.95;8.07;;;6.20;99.70;;;;;;5066651;28;20400;-75
2023/03/13 01:08:36;;;;;;;36.60;7.30;;;6.20;99.70;;;;;;5067030;28;20067;-75
2023/03/13 01:11:11;;;;;;;41.22;8.77;;;6.20;99.70;;;;;;5068366;28;20064;-75
2023/03/13 01:13:37;;;;;;;35.08;7.80;;;6.20;99.60;;;;;;5064601;28;20469;-75
2023/03/13 01:16:06;;;;;;;29.35;8.07;;;6.10;99.70;;;;;;5064420;28;20085;-75
2023/03/13 01:18:33;;;;;;;44.72;7.80;;;6.10;99.70;;;;;;5063278;28;20028;-75
2023/03/13 01:20:58;;;;;;;45.00;8.13;;;6.10;99.80;;;;;;5064567;28;20947;-75
2023/03/13 01:23:25;;;;;;;40.50;8.25;;;6.10;99.80;;;;;;5069290;28;20033;-75
2023/03/13 01:25:50;;;;;;;33.72;7.60;;;6.10;99.80;;;;;;5070267;28;20040;-76
2023/03/13 01:28:16;;;;;;;34.30;7.13;;;6.10;99.80;;;;;;5067314;28;20070;-75
2023/03/13 01:30:41;;;;;;;35.47;8.52;;;6.10;99.90;;;;;;5071954;28;20055;-76
2023/03/13 01:33:07;;;;;;;34.40;8.63;;;6.10;99.90;;;;;;5061413;28;20024;-75
2023/03/13 01:35:32;;;;;;;40.13;7.45;;;6.10;99.90;;;;;;5060752;28;20092;-75
2023/03/13 01:37:58;;;;;;;33.17;7.68;;;6.10;99.90;;;;;;5074574;28;20037;-75
2023/03/13 01:40:23;;;;;;;42.15;8.32;;;6.10;99.90;;;;;;5056146;28;20036;-75
2023/03/13 01:42:59;;;;;;;38.33;8.23;;;6.10;99.90;;;;;;5073280;28;20032;-75
2023/03/13 01:45:53;;;;;;;43.38;7.93;;;6.10;99.90;;;;;;5066947;28;20086;-75
2023/03/13 01:48:23;;;;;;;39.45;8.80;;;6.10;99.90;;;;;;5072713;28;20028;-75
2023/03/13 01:50:49;;;;;;;39.97;8.45;;;6.10;99.90;;;;;;5071269;28;20024;-75
2023/03/13 01:53:14;;;;;;;35.47;8.10;;;6.10;99.80;;;;;;5083093;28;20052;-75
2023/03/13 01:55:40;;;;;;;41.67;7.25;;;6.10;99.80;;;;;;5074450;28;20032;-75
2023/03/13 01:58:05;;;;;;;38.55;7.43;;;6.20;99.90;;;;;;5081147;28;20036;-75
2023/03/13 02:00:34;;;;;;;33.13;7.45;;;6.20;99.80;;;;;;5068330;28;20069;-74
2023/03/13 02:03:06;;;;;;;28.02;6.50;;;6.10;99.80;;;;;;5076556;28;20029;-75
2023/03/13 02:05:32;;;;;;;29.30;6.65;;;6.30;99.90;;;;;;5066185;28;20024;-76
2023/03/13 02:08:07;;;;;;;41.33;7.35;;;6.30;99.80;;;;;;5071377;28;20036;-74
2023/03/13 02:10:38;;;;;;;39.10;7.57;;;6.30;99.70;;;;;;5063156;28;20021;-75
2023/03/13 02:13:03;;;;;;;41.75;6.82;;;6.20;99.70;;;;;;5070395;28;21839;-76
2023/03/13 02:15:30;;;;;;;31.58;7.20;;;6.20;99.80;;;;;;5073909;28;20073;-74
2023/03/13 02:17:56;;;;;;;41.28;6.90;;;6.30;99.80;;;;;;5070092;28;20047;-75
2023/03/13 02:20:22;;;;;;;44.15;7.25;;;6.30;99.90;;;;;;5070708;28;20044;-75
2023/03/13 02:23:13;;;;;;;43.70;6.93;;;6.30;99.90;;;;;;5070216;28;20036;-74
2023/03/13 02:25:48;;;;;;;32.67;5.55;;;6.30;99.90;;;;;;5081093;28;20485;-75
2023/03/13 02:28:23;;;;;;;34.88;7.28;;;6.30;99.90;;;;;;5068547;28;20032;-74
2023/03/13 02:30:50;;;;;;;38.45;7.40;;;6.40;99.90;;;;;;5064569;28;20111;-76
2023/03/13 02:33:18;;;;;;;35.75;6.20;;;6.30;99.90;;;;;;5073043;28;20086;-75
2023/03/13 02:35:45;;;;;;;36.72;6.45;;;6.30;99.90;;;;;;5067139;28;20037;-75
2023/03/13 02:38:15;;;;;;;30.63;6.35;;;6.30;99.90;;;;;;5071409;28;20032;-75
2023/03/13 02:40:44;;;;;;;32.17;6.60;;;6.30;99.90;;;;;;5070929;28;20037;-74
2023/03/13 02:43:23;;;;;;;37.42;6.18;;;6.40;99.90;;;;;;5068698;28;20025;-74
2023/03/13 02:46:12;;;;;;;40.15;6.60;;;6.40;99.90;;;;;;5065837;28;20024;-74
2023/03/13 02:48:40;;;;;;;33.58;6.13;;;6.40;99.90;;;;;;5070002;28;20388;-75
2023/03/13 02:51:23;;;;;;;40.10;6.28;;;6.40;99.90;;;;;;5072430;28;20115;-75
2023/03/13 02:53:51;;;;;;;44.17;6.78;;;6.40;99.90;;;;;;5074128;28;20063;-74
2023/03/13 02:56:19;;;;;;;34.83;5.82;;;6.40;99.90;;;;;;5075207;28;20090;-73
2023/03/13 02:58:45;;;;;;;35.42;5.85;;;6.50;99.90;;;;;;5069286;28;20369;-75
2023/03/13 03:01:10;;;;;;;40.28;6.25;;;6.50;99.90;;;;;;5068180;28;20033;-74
2023/03/13 03:03:36;;;;;;;40.00;5.85;;;6.50;99.90;;;;;;5078419;28;20060;-75
2023/03/13 03:06:03;;;;;;;33.90;5.88;;;6.50;99.90;;;;;;5067924;28;20558;-74
2023/03/13 03:08:29;;;;;;;40.28;6.22;;;6.50;99.90;;;;;;5071923;28;20033;-74
2023/03/13 03:10:54;;;;;;;36.88;6.68;;;6.50;99.90;;;;;;5068544;28;20516;-73
2023/03/13 03:13:20;;;;;;;31.00;5.50;;;6.50;99.90;;;;;;5051558;28;20480;-73
2023/03/13 03:15:45;;;;;;;34.75;5.53;;;6.50;99.90;;;;;;5061796;28;20110;-73
2023/03/13 03:18:11;;;;;;;31.15;5.20;;;6.50;99.90;;;;;;5066932;28;20093;-75
2023/03/13 03:20:36;;;;;;;32.75;6.60;;;6.50;99.90;;;;;;5067870;28;20535;-74
2023/03/13 03:23:01;;;;;;;34.40;5.88;;;6.50;99.90;;;;;;5069721;28;20056;-73
2023/03/13 03:25:27;;;;;;;34.53;6.03;;;6.60;99.90;;;;;;5073062;28;20126;-74
2023/03/13 03:27:52;;;;;;;37.85;5.68;;;6.60;99.90;;;;;;5062632;28;20106;-73
2023/03/13 03:30:18;;;;;;;44.13;6.07;;;6.50;99.90;;;;;;5075051;28;20040;-75
2023/03/13 03:32:43;;;;;;;49.28;6.70;;;6.50;99.90;;;;;;5068497;28;20041;-75
2023/03/13 03:35:09;;;;;;;26.80;5.65;;;6.50;99.90;;;;;;5067157;28;20060;-74
2023/03/13 03:37:34;;;;;;;37.78;6.32;;;6.50;99.90;;;;;;5070962;28;20485;-74
2023/03/13 03:40:00;;;;;;;36.33;6.22;;;6.50;99.90;;;;;;5071098;28;20028;-73
2023/03/13 03:42:25;;;;;;;40.13;5.43;;;6.50;99.90;;;;;;5069181;28;20040;-73
2023/03/13 03:44:51;;;;;;;33.50;5.88;;;6.60;99.90;;;;;;5072456;28;20461;-75
2023/03/13 03:47:16;;;;;;;31.75;5.22;;;6.50;99.90;;;;;;5064878;28;20119;-73
2023/03/13 03:49:42;;;;;;;40.78;5.95;;;6.50;99.90;;;;;;5064108;28;20024;-74
2023/03/13 03:52:07;;;;;;;34.03;5.53;;;6.50;99.90;;;;;;5064973;28;20032;-74
2023/03/13 03:54:33;;;;;;;30.00;5.47;;;6.50;99.90;;;;;;5066479;28;20440;-74
2023/03/13 03:56:59;;;;;;;36.58;5.88;;;6.50;99.90;;;;;;5067970;28;20028;-75
2023/03/13 03:59:25;;;;;;;27.60;5.18;;;6.50;99.90;;;;;;5076165;28;20125;-75
2023/03/13 04:01:50;;;;;;;31.90;5.68;;;6.50;99.90;;;;;;5069588;28;20127;-75
2023/03/13 04:04:16;;;;;;;32.50;5.90;;;6.50;99.90;;;;;;5065213;28;20115;-75
2023/03/13 04:06:41;;;;;;;31.83;4.85;;;6.60;99.90;;;;;;5065614;28;20474;-74
2023/03/13 04:09:07;;;;;;;29.45;6.40;;;6.50;99.90;;;;;;5068058;28;20040;-73
2023/03/13 04:11:32;;;;;;;43.30;6.30;;;6.60;99.90;;;;;;5069793;28;20045;-74
2023/03/13 04:13:58;;;;;;;28.10;6.10;;;6.60;99.90;;;;;;5068711;28;20149;-73
2023/03/13 04:16:23;;;;;;;29.55;5.03;;;6.60;99.90;;;;;;5061844;28;20038;-74
2023/03/13 04:18:49;;;;;;;37.40;5.25;;;6.60;99.90;;;;;;5062315;28;20044;-74
2023/03/13 04:21:14;;;;;;;27.77;5.40;;;6.60;99.90;;;;;;5064747;28;21501;-74
2023/03/13 04:23:40;;;;;;;38.30;6.07;;;6.60;99.90;;;;;;5067657;28;20044;-75
2023/03/13 04:26:05;;;;;;;23.05;4.53;;;6.60;99.90;;;;;;5068146;28;20546;-74
2023/03/13 04:28:31;;;;;;;32.33;5.80;;;6.70;99.90;;;;;;5068618;28;20047;-75
2023/03/13 04:30:57;;;;;;;32.53;5.22;;;6.60;99.90;;;;;;5069487;28;20734;-75
2023/03/13 04:33:23;;;;;;;43.45;5.25;;;6.60;99.90;;;;;;5066532;28;20608;-74
2023/03/13 04:35:49;;;;;;;34.80;5.18;;;6.60;99.90;;;;;;5072501;28;20024;-75
2023/03/13 04:38:14;;;;;;;31.35;5.95;;;6.60;99.90;;;;;;5080880;28;20111;-74
2023/03/13 04:40:42;;;;;;;38.03;5.63;;;6.60;99.90;;;;;;5069033;28;20034;-74
2023/03/13 04:43:07;;;;;;;37.53;5.43;;;6.60;99.90;;;;;;5070607;28;20025;-76
2023/03/13 04:45:33;;;;;;;34.30;5.25;;;6.60;99.90;;;;;;5075413;28;20028;-74
2023/03/13 04:47:58;;;;;;;29.25;5.75;;;6.60;99.90;;;;;;5070462;28;20049;-74
2023/03/13 04:50:24;;;;;;;30.48;5.28;;;6.60;99.90;;;;;;5074505;28;20028;-74
2023/03/13 04:52:49;;;;;;;34.67;5.80;;;6.70;99.90;;;;;;5078764;28;20484;-74
2023/03/13 04:55:15;;;;;;;27.88;5.60;;;6.60;99.90;;;;;;5077476;28;20046;-74
2023/03/13 04:57:40;;;;;;;30.38;5.43;;;6.70;99.90;;;;;;5068949;28;20036;-75
2023/03/13 05:00:07;;;;;;;34.20;4.70;;;6.60;99.90;;;;;;5070624;28;20052;-74
2023/03/13 05:02:33;;;;;;;25.33;4.78;;;6.70;99.90;;;;;;5065275;28;20082;-75
2023/03/13 05:04:58;;;;;;;26.25;5.10;;;6.80;99.90;;;;;;5067540;28;20025;-74
2023/03/13 05:07:24;;;;;;;32.90;6.10;;;6.80;99.90;;;;;;5069507;28;20037;-75
2023/03/13 05:09:49;;;;;;;28.48;5.32;;;6.80;99.90;;;;;;5072219;28;20082;-74
2023/03/13 05:12:15;;;;;;;25.02;4.97;;;6.80;99.90;;;;;;5084052;28;20111;-74
2023/03/13 05:14:40;;;;;;;36.47;5.65;;;6.80;99.90;;;;;;5045584;28;20033;-75
2023/03/13 05:17:06;;;;;;;27.70;5.47;;;6.80;99.90;;;;;;5074208;28;20032;-74
2023/03/13 05:19:31;;;;;;;22.35;4.70;;;6.80;99.90;;;;;;5063000;28;20135;-74
2023/03/13 05:21:57;;;;;;;28.40;5.15;;;6.90;99.90;;;;;;5069501;28;20035;-74
2023/03/13 05:24:22;;;;;;;26.30;4.85;;;6.80;99.90;;;;;;5063089;28;20085;-75
2023/03/13 05:26:48;;;;;;;15.18;4.60;;;6.90;99.90;;;;;;5068517;28;20123;-74
2023/03/13 05:29:13;;;;;;;26.10;4.75;;;6.90;99.90;;;;;;5053510;28;20028;-77
2023/03/13 05:31:38;;;;;;;30.15;5.28;;;6.90;99.90;;;;;;5074781;28;20036;-85
2023/03/13 05:34:04;;;;;;;25.08;5.22;;;6.90;99.90;;;;;;5063480;28;20502;-87
2023/03/13 05:36:29;;;;;;;22.60;4.45;;;7.00;99.90;;;;;;5072323;28;20032;-82
2023/03/13 05:38:55;;;;;;;25.52;4.75;;;7.10;99.90;;;;;;5065704;28;20145;-83
2023/03/13 05:41:20;;;;;;;18.60;4.55;;;7.10;99.90;;;;;;5062418;28;20500;-79
2023/03/13 05:43:46;;;;;;;18.52;3.90;;;7.10;99.90;;;;;;5082911;28;20089;-77
2023/03/13 05:46:11;;;;;;;13.98;4.18;;;7.10;99.90;;;;;;5080722;28;20071;-79
2023/03/13 05:48:37;;;;;;;16.23;3.97;;;7.10;99.90;;;;;;5082046;28;20040;-79
2023/03/13 05:51:02;;;;;;;17.88;4.38;;;7.20;99.90;;;;;;5076022;28;20075;-82
2023/03/13 05:53:28;;;;;;;17.02;4.38;;;7.20;99.90;;;;;;5067120;28;20055;-79
2023/03/13 05:55:53;;;;;;;19.73;4.90;;;7.20;99.90;;;;;;5071936;28;20029;-85
2023/03/13 05:58:19;;;;;;;17.80;4.40;;;7.30;99.90;;;;;;5066405;28;20114;-77
2023/03/13 06:00:44;;;;;;;19.08;4.70;;;7.20;99.90;;;;;;5062160;28;20036;-81
2023/03/13 06:03:09;;;;;;;15.05;3.85;;;7.30;99.90;;;;;;5042650;28;20147;-81
2023/03/13 06:05:35;;;;;;;14.32;4.20;;;7.30;99.90;;;;;;5059446;28;20676;-76
2023/03/13 06:08:01;;;;;;;12.50;3.40;;;7.30;99.90;;;;;;5074941;28;20040;-77
2023/03/13 06:10:27;;;;;;;13.13;3.55;;;7.40;99.90;;;;;;5067868;28;20024;-81
2023/03/13 06:12:55;;;;;;;15.52;4.05;;;7.50;99.90;;;;;;5070832;28;20094;-73
2023/03/13 06:15:22;;;;;;;17.35;3.63;;;7.40;99.90;;;;;;5071726;28;20024;-77
2023/03/13 06:17:48;;;;;;;12.48;3.53;;;7.50;99.90;;;;;;5075176;28;20036;-81
2023/03/13 06:20:14;;;;;;;11.95;3.65;;;7.40;99.90;;;;;;5073812;28;20039;-78
2023/03/13 06:22:40;;;;;;;9.68;3.45;;;7.50;99.90;;;;;;5075844;28;20115;-81
2023/03/13 06:25:06;;;;;;;10.70;3.13;;;7.40;99.90;;;;;;5074040;28;20032;-79
2023/03/13 06:27:31;;;;;;;15.60;3.78;;;7.50;99.90;;;;;;5074968;28;20115;-75
2023/03/13 06:29:57;;;;;;;14.05;3.67;;;7.50;99.90;;;;;;5074908;28;20044;-81
2023/03/13 06:32:22;;;;;;;15.98;3.83;;;7.60;99.90;;;;;;5080536;28;20040;-81
2023/03/13 06:34:48;;;;;;;13.95;4.32;;;7.60;99.90;;;;;;5076439;28;20056;-81
2023/03/13 06:37:13;;;;;;;9.15;3.60;;;7.60;99.90;;;;;;5079228;28;20028;-78
2023/03/13 06:39:38;;;;;;;10.35;3.83;;;7.70;99.90;;;;;;5075929;28;20033;-80
2023/03/13 06:42:04;;;;;;;14.63;4.32;;;7.70;99.90;;;;;;5067377;28;20090;-83
2023/03/13 06:44:30;;;;;;;15.88;4.47;;;7.80;99.90;;;;;;5081928;28;20029;-80
2023/03/13 06:46:55;;;;;;;16.52;4.03;;;7.90;99.90;;;;;;5081260;28;21033;-81
2023/03/13 06:49:21;;;;;;;11.23;3.88;;;7.90;99.90;;;;;;5071139;28;20037;-77
2023/03/13 06:51:46;;;;;;;9.30;4.07;;;8.00;99.90;;;;;;5080803;28;20032;-81
2023/03/13 06:54:12;;;;;;;16.08;5.00;;;8.00;99.90;;;;;;5078881;28;20043;-76
2023/03/13 06:56:37;;;;;;;16.02;4.18;;;8.10;99.90;;;;;;5075494;28;20646;-81
2023/03/13 06:59:03;;;;;;;11.90;3.47;;;8.20;99.90;;;;;;5074776;28;20044;-76
2023/03/13 07:01:28;;;;;;;13.18;4.78;;;8.30;99.90;;;;;;5067602;28;20024;-81
2023/03/13 07:03:54;;;;;;;14.23;5.22;;;8.30;99.90;;;;;;5071313;28;20032;-81
2023/03/13 07:06:19;;;;;;;12.43;5.05;;;8.40;99.90;;;;;;5065051;28;20424;-78
2023/03/13 07:08:45;;;;;;;19.25;5.13;;;8.40;99.90;;;;;;5079038;28;20031;-81
2023/03/13 07:11:13;;;;;;;10.35;4.80;;;8.60;99.90;;;;;;5075993;28;20029;-78
2023/03/13 07:13:39;;;;;;;11.73;4.97;;;8.50;99.90;;;;;;5071362;28;20040;-81
2023/03/13 07:16:07;;;;;;;13.15;5.35;;;8.60;99.90;;;;;;5069591;28;20222;-81
2023/03/13 07:18:33;;;;;;;13.80;4.82;;;8.60;99.90;;;;;;5077719;28;20025;-82
2023/03/13 07:21:00;;;;;;;10.48;5.28;;;8.70;99.90;;;;;;5052459;28;20032;-82
2023/03/13 07:23:27;;;;;;;11.18;6.05;;;8.80;99.90;;;;;;5074184;28;20044;-78
2023/03/13 07:25:58;;;;;;;16.77;5.90;;;8.90;99.90;;;;;;5079224;28;20047;-80
2023/03/13 07:28:24;;;;;;;11.95;5.53;;;8.90;99.90;;;;;;5080908;28;20056;-80
2023/03/13 07:30:50;;;;;;;16.67;6.07;;;9.00;99.90;;;;;;5067303;28;20785;-80
2023/03/13 07:33:16;;;;;;;14.23;5.82;;;9.00;99.90;;;;;;5070666;28;20021;-76
2023/03/13 07:35:49;;;;;;;13.10;6.15;;;9.10;99.90;;;;;;5067444;28;20074;-80
2023/03/13 07:38:15;;;;;;;12.20;6.20;;;9.10;99.90;;;;;;5070845;28;20091;-81
2023/03/13 07:40:48;;;;;;;10.95;6.13;;;9.20;99.90;;;;;;5072550;28;20032;-79
2023/03/13 07:43:13;;;;;;;13.02;5.70;;;9.30;99.90;;;;;;5067784;28;20039;-78
2023/03/13 07:45:39;;;;;;;9.80;5.80;;;9.30;99.90;;;;;;5062175;28;20037;-81
2023/03/13 07:48:04;;;;;;;12.20;6.35;;;9.40;99.90;;;;;;5063042;28;20048;-82
2023/03/13 07:50:30;;;;;;;12.55;6.35;;;9.40;99.90;;;;;;5064412;28;20123;-81
2023/03/13 07:52:55;;;;;;;15.95;7.30;;;9.50;99.90;;;;;;5066796;28;20038;-80
2023/03/13 07:55:21;;;;;;;13.75;6.63;;;9.60;99.90;;;;;;5069515;28;20028;-80
2023/03/13 07:57:46;;;;;;;14.68;7.10;;;9.70;99.90;;;;;;5060812;28;20032;-80
2023/03/13 08:00:15;;;;;;;14.27;6.53;;;9.80;99.90;;;;;;5069640;28;20036;-81
2023/03/13 08:02:40;;;;;;;15.57;7.00;;;9.70;99.90;;;;;;5070498;28;20032;-84
2023/03/13 08:05:06;;;;;;;13.98;6.60;;;9.90;99.90;;;;;;5062651;28;20043;-83
2023/03/13 08:07:32;;;;;;;14.45;6.90;;;9.90;99.90;;;;;;5072100;28;20039;-82
2023/03/13 08:09:57;;;;;;;16.25;8.38;;;10.00;99.90;;;;;;5075103;28;20039;-83
2023/03/13 08:12:22;;;;;;;13.27;7.25;;;10.00;99.90;;;;;;5067194;28;20031;-80
2023/03/13 08:14:48;;;;;;;12.52;7.60;;;10.10;99.90;;;;;;5051166;28;20043;-78
2023/03/13 08:17:13;;;;;;;16.85;7.82;;;10.10;99.90;;;;;;5072956;28;20504;-78
2023/03/13 08:19:39;;;;;;;12.27;7.35;;;10.10;99.90;;;;;;5069730;28;20051;-81
2023/03/13 08:22:04;;;;;;;13.95;7.97;;;10.20;99.90;;;;;;5068808;28;20051;-82
2023/03/13 08:24:30;;;;;;;11.00;6.80;;;10.20;99.90;;;;;;5078207;28;20063;-81
2023/03/13 08:26:55;;;;;;;13.68;6.90;;;10.30;99.90;;;;;;5068991;28;20040;-83
2023/03/13 08:29:21;;;;;;;16.45;7.68;;;10.30;99.90;;;;;;5065654;28;20443;-77
2023/03/13 08:31:48;;;;;;;14.27;7.30;;;10.40;99.90;;;;;;5066880;28;20038;-77
2023/03/13 08:34:16;;;;;;;15.30;6.95;;;10.40;99.90;;;;;;5058300;28;20507;-75
2023/03/13 08:36:41;;;;;;;13.57;7.45;;;10.50;99.90;;;;;;5063335;28;20036;-79
2023/03/13 08:39:14;;;;;;;13.20;6.38;;;10.50;99.90;;;;;;5057132;28;20028;-78
2023/03/13 08:41:40;;;;;;;13.88;7.70;;;10.50;99.90;;;;;;5058932;28;20029;-75
2023/03/13 08:44:07;;;;;;;14.48;7.85;;;10.60;99.90;;;;;;5057533;28;20377;-78
2023/03/13 08:46:35;;;;;;;16.02;7.40;;;10.60;99.90;;;;;;5059212;28;20044;-76
2023/03/13 08:49:01;;;;;;;12.20;7.57;;;10.70;99.90;;;;;;5065348;28;20119;-78
2023/03/13 08:51:28;;;;;;;15.02;7.63;;;10.70;99.90;;;;;;5060492;28;20039;-76
2023/03/13 08:53:54;;;;;;;15.73;7.05;;;10.70;99.90;;;;;;5062752;28;20135;-76
2023/03/13 08:56:23;;;;;;;12.50;7.10;;;10.80;99.90;;;;;;5048381;28;20028;-75
2023/03/13 08:58:53;;;;;;;17.27;8.85;;;10.80;99.90;;;;;;5062172;28;20135;-80
2023/03/13 09:01:20;;;;;;;13.77;8.25;;;10.80;99.90;;;;;;5057819;28;20366;-78
2023/03/13 09:03:46;;;;;;;18.08;8.80;;;10.80;99.90;;;;;;5072496;28;20384;-78
2023/03/13 09:06:12;;;;;;;17.15;8.52;;;10.80;99.90;;;;;;5061841;28;20040;-79
2023/03/13 09:08:38;;;;;;;33.47;17.25;;;10.80;99.90;;;;;;5074166;28;20047;-83
2023/03/13 09:11:10;;;;;;;20.02;11.38;;;10.90;99.90;;;;;;5063853;28;20029;-79
2023/03/13 09:13:39;;;;;;;19.08;9.63;;;10.80;99.90;;;;;;5070087;28;20037;-78
2023/03/13 09:16:10;;;;;;;16.73;9.65;;;10.90;99.90;;;;;;5077684;28;20497;-86
2023/03/13 09:18:36;;;;;;;12.63;8.85;;;10.90;99.90;;;;;;5070482;28;20039;-84
2023/03/13 09:21:02;;;;;;;16.50;8.25;;;10.90;99.90;;;;;;5068616;28;20495;-79
2023/03/13 09:23:28;;;;;;;14.32;8.65;;;11.00;99.90;;;;;;5069391;28;20045;-85
2023/03/13 09:25:55;;;;;;;15.85;8.30;;;11.00;99.90;;;;;;5072138;28;20473;-82
2023/03/13 09:28:25;;;;;;;12.45;8.25;;;10.90;99.90;;;;;;5075123;28;20033;-82
2023/03/13 09:30:51;;;;;;;13.65;7.60;;;11.00;99.90;;;;;;5071106;28;20083;-80
2023/03/13 09:33:17;;;;;;;16.08;8.20;;;11.00;99.90;;;;;;5062380;28;20032;-81
2023/03/13 09:35:49;;;;;;;13.10;6.90;;;11.00;99.90;;;;;;5067726;28;20036;-82
2023/03/13 09:38:15;;;;;;;13.65;7.95;;;11.00;99.90;;;;;;5080064;28;20032;-80
2023/03/13 09:40:44;;;;;;;13.82;7.40;;;11.10;99.90;;;;;;5071032;28;20038;-76
2023/03/13 09:43:31;;;;;;;16.50;7.63;;;11.10;99.90;;;;;;5072488;28;20032;-78
2023/03/13 09:46:01;;;;;;;12.00;6.82;;;11.20;99.90;;;;;;5074282;28;20522;-80
2023/03/13 09:48:33;;;;;;;12.10;7.37;;;11.30;99.90;;;;;;5074039;28;20033;-76
2023/03/13 09:51:03;;;;;;;12.32;7.25;;;11.30;99.90;;;;;;5075117;28;20451;-78
2023/03/13 09:53:42;;;;;;;11.15;5.88;;;11.40;99.90;;;;;;5072699;28;20032;-82
2023/03/13 09:56:14;;;;;;;13.27;6.95;;;11.40;99.90;;;;;;5076833;28;20029;-76
2023/03/13 09:58:48;;;;;;;12.88;7.05;;;11.40;99.90;;;;;;5069045;28;20032;-81
2023/03/13 10:01:19;;;;;;;10.43;5.95;;;11.30;99.90;;;;;;5067839;28;20029;-77
2023/03/13 10:04:05;;;;;;;18.92;7.15;;;11.40;99.90;;;;;;5074672;28;20127;-80
2023/03/13 10:06:37;;;;;;;11.38;7.97;;;11.30;99.90;;;;;;5071891;28;20049;-78
2023/03/13 10:09:04;;;;;;;15.07;7.60;;;11.30;99.90;;;;;;5078670;28;20119;-76
2023/03/13 10:11:45;;;;;;;10.13;6.20;;;11.30;99.90;;;;;;5077862;28;20028;-80
2023/03/13 10:14:27;;;;;;;10.55;5.22;;;11.30;99.90;;;;;;5063769;28;20025;-76
2023/03/13 10:17:06;;;;;;;9.05;4.80;;;11.30;99.90;;;;;;5069028;28;20122;-79
2023/03/13 10:19:41;;;;;;;9.30;5.43;;;11.30;99.90;;;;;;5073163;28;20078;-80
2023/03/13 10:22:19;;;;;;;11.85;5.18;;;11.40;99.90;;;;;;5082651;28;20028;-79
2023/03/13 10:25:19;;;;;;;10.70;5.53;;;11.40;99.90;;;;;;5081328;28;20131;-77
2023/03/13 10:27:49;;;;;;;12.88;5.65;;;11.50;99.90;;;;;;5047218;28;20134;-75
2023/03/13 10:30:25;;;;;;;9.02;5.65;;;11.70;99.90;;;;;;5083249;28;20101;-79
2023/03/13 10:33:19;;;;;;;10.75;6.15;;;11.90;99.80;;;;;;5075439;28;20043;-78
2023/03/13 10:35:44;;;;;;;13.05;5.82;;;12.00;99.50;;;;;;5079243;28;20457;-81
2023/03/13 10:38:18;;;;;;;12.90;6.32;;;12.10;99.40;;;;;;5070805;28;20050;-82
2023/03/13 10:41:00;;;;;;;49.72;24.75;;;12.10;99.10;;;;;;5056863;28;20028;-78
2023/03/13 10:43:28;;;;;;;11.90;5.88;;;12.10;98.60;;;;;;5073548;28;20028;-84
2023/03/13 10:45:54;;;;;;;16.48;9.32;;;12.20;98.40;;;;;;5073991;28;20063;-82
2023/03/13 10:48:22;;;;;;;18.60;11.60;;;12.40;97.80;;;;;;5071510;28;20025;-82
2023/03/13 10:50:51;;;;;;;13.73;7.07;;;12.50;97.60;;;;;;5079971;28;20096;-81
2023/03/13 10:53:27;;;;;;;9.95;5.68;;;12.40;97.80;;;;;;5053462;28;20598;-81
2023/03/13 10:55:56;;;;;;;6.93;4.25;;;12.30;97.40;;;;;;5065548;28;20064;-81
2023/03/13 10:58:32;;;;;;;9.80;4.65;;;12.30;97.50;;;;;;5067134;28;20032;-83
2023/03/13 11:01:20;;;;;;;7.20;3.67;;;12.30;97.70;;;;;;5068266;28;20705;-82
2023/03/13 11:03:48;;;;;;;9.38;3.47;;;12.30;97.50;;;;;;5066060;28;20032;-81
2023/03/13 11:06:27;;;;;;;8.77;3.60;;;12.30;97.10;;;;;;5064756;28;20043;-84
2023/03/13 11:09:15;;;;;;;7.10;3.10;;;12.40;96.90;;;;;;5051402;28;20481;-79
2023/03/13 11:11:46;;;;;;;4.43;2.90;;;12.40;96.50;;;;;;5069545;28;20029;-83
2023/03/13 11:14:23;;;;;;;7.82;3.35;;;12.40;96.80;;;;;;5067773;28;20039;-79
2023/03/13 11:17:21;;;;;;;9.40;3.45;;;12.40;96.90;;;;;;5067555;28;20028;-77
2023/03/13 11:20:01;;;;;;;6.90;3.28;;;12.60;96.00;;;;;;5063244;28;20029;-75
2023/03/13 11:22:36;;;;;;;6.40;2.65;;;12.60;95.90;;;;;;5074260;28;20065;-79
2023/03/13 11:25:27;;;;;;;4.78;2.28;;;12.70;95.40;;;;;;5076845;28;20029;-76
2023/03/13 11:28:10;;;;;;;4.65;2.38;;;12.80;94.00;;;;;;5052843;28;20041;-75
2023/03/13 11:30:46;;;;;;;7.55;2.50;;;12.80;94.30;;;;;;5059438;28;20040;-74
2023/03/13 11:33:29;;;;;;;6.85;2.33;;;12.80;95.10;;;;;;5069840;28;20028;-78
2023/03/13 11:36:13;;;;;;;5.93;2.47;;;13.00;94.20;;;;;;5048269;28;20481;-78
2023/03/13 11:38:43;;;;;;;7.40;2.63;;;13.00;94.20;;;;;;5066795;28;20042;-74
2023/03/13 11:41:47;;;;;;;5.43;2.50;;;12.90;94.90;;;;;;5067895;28;20124;-74
2023/03/13 11:44:46;;;;;;;4.78;2.13;;;13.00;94.30;;;;;;5053828;28;20037;-77
2023/03/13 11:47:41;;;;;;;6.93;2.38;;;13.30;93.80;;;;;;5064818;28;20115;-75
2023/03/13 11:50:33;;;;;;;4.45;1.63;;;13.70;91.80;;;;;;5070724;28;20423;-79
2023/03/13 11:53:21;;;;;;;5.75;2.08;;;13.90;91.10;;;;;;5072564;28;20453;-80
2023/03/13 11:56:12;;;;;;;8.38;2.05;;;14.20;91.00;;;;;;5067250;28;20031;-74
2023/03/13 11:58:48;;;;;;;3.70;1.83;;;14.20;90.30;;;;;;5073590;28;20068;-80
2023/03/13 12:01:18;;;;;;;6.10;1.67;;;14.20;88.30;;;;;;5066245;28;20497;-80
2023/03/13 12:03:53;;;;;;;4.38;2.00;;;14.50;87.90;;;;;;5071536;28;20040;-81
2023/03/13 12:06:29;;;;;;;4.00;1.77;;;14.60;87.90;;;;;;5064698;28;20049;-80
2023/03/13 12:09:08;;;;;;;3.58;1.60;;;14.60;87.40;;;;;;5074550;28;20028;-79
2023/03/13 12:11:37;;;;;;;3.45;1.35;;;14.90;86.30;;;;;;5066721;28;20112;-79
2023/03/13 12:14:47;;;;;;;6.80;1.60;;;15.00;84.60;;;;;;5068513;28;20040;-81
2023/03/13 12:17:28;;;;;;;1.98;0.77;;;15.10;82.90;;;;;;5050198;28;20635;-80
2023/03/13 12:20:11;;;;;;;4.65;1.15;;;15.00;81.10;;;;;;5067011;28;20032;-77
2023/03/13 12:22:44;;;;;;;3.63;0.98;;;15.30;78.20;;;;;;5068313;28;20380;-78
2023/03/13 12:25:24;;;;;;;3.10;1.17;;;15.40;79.20;;;;;;5069382;28;20098;-75
2023/03/13 12:28:06;;;;;;;3.10;0.98;;;15.80;79.70;;;;;;5072830;28;20066;-79
2023/03/13 12:31:08;;;;;;;4.22;1.17;;;15.40;80.10;;;;;;5049491;28;20037;-78
2023/03/13 12:34:04;;;;;;;4.72;1.13;;;15.20;79.20;;;;;;5062666;28;20496;-79
2023/03/13 12:36:39;;;;;;;4.68;1.10;;;15.90;77.90;;;;;;5062262;28;20036;-78
2023/03/13 12:39:29;;;;;;;4.15;1.40;;;16.00;77.40;;;;;;5068193;28;20037;-77
2023/03/13 12:42:18;;;;;;;3.47;0.88;;;16.30;74.60;;;;;;5065933;28;20473;-83
2023/03/13 12:44:44;;;;;;;5.47;1.23;;;15.80;75.10;;;;;;5084504;28;20108;-79
2023/03/13 12:47:30;;;;;;;4.63;0.98;;;15.60;75.50;;;;;;5063214;28;20040;-81
2023/03/13 12:50:25;;;;;;;5.15;1.25;;;15.80;74.20;;;;;;5065369;28;20044;-85
2023/03/13 12:53:27;;;;;;;4.93;1.10;;;16.30;73.50;;;;;;5070169;28;20097;-79
2023/03/13 12:56:08;;;;;;;3.30;0.90;;;16.40;71.90;;;;;;5088987;23;20201;-84
2023/03/13 12:58:47;;;;;;;3.30;1.00;;;16.00;72.50;;;;;;5057995;28;20025;-85